sensor_id;sensor_type;location;lat;lon;timestamp;pressure;altitude;pressure_sealevel;temperature;humidity
54592;BME280;40488;48.558;18.150;2023-02-17T00:01:37;100535.19;;;0.40;91.98
54592;BME280;40488;48.558;18.150;2023-02-17T00:04:06;100534.56;;;0.44;92.10
54592;BME280;40488;48.558;18.150;2023-02-17T00:06:35;100542.53;;;0.37;92.50
54592;BME280;40488;48.558;18.150;2023-02-17T00:09:04;100545.16;;;0.38;92.64
54592;BME280;40488;48.558;18.150;2023-02-17T00:11:35;100532.84;;;0.43;92.36
54592;BME280;40488;48.558;18.150;2023-02-17T00:14:04;100531.09;;;0.42;92.25
54592;BME280;40488;48.558;18.150;2023-02-17T00:16:34;100520.75;;;0.36;92.62
54592;BME280;40488;48.558;18.150;2023-02-17T00:19:03;100530.09;;;0.38;92.26
54592;BME280;40488;48.558;18.150;2023-02-17T00:21:52;100528.53;;;0.40;92.92
54592;BME280;40488;48.558;18.150;2023-02-17T00:24:22;100533.03;;;0.31;92.37
54592;BME280;40488;48.558;18.150;2023-02-17T00:26:52;100538.78;;;0.29;92.45
54592;BME280;40488;48.558;18.150;2023-02-17T00:29:22;100539.56;;;0.28;92.58
54592;BME280;40488;48.558;18.150;2023-02-17T00:31:51;100538.63;;;0.26;92.74
54592;BME280;40488;48.558;18.150;2023-02-17T00:34:22;100537.97;;;0.30;92.90
54592;BME280;40488;48.558;18.150;2023-02-17T00:36:51;100540.97;;;0.39;92.69
54592;BME280;40488;48.558;18.150;2023-02-17T00:39:20;100534.56;;;0.44;93.04
54592;BME280;40488;48.558;18.150;2023-02-17T00:41:49;100535.66;;;0.33;93.13
54592;BME280;40488;48.558;18.150;2023-02-17T00:44:23;100537.22;;;0.31;92.76
54592;BME280;40488;48.558;18.150;2023-02-17T00:46:52;100534.53;;;0.28;93.20
54592;BME280;40488;48.558;18.150;2023-02-17T00:49:23;100530.16;;;0.24;93.09
54592;BME280;40488;48.558;18.150;2023-02-17T00:51:53;100528.22;;;0.20;92.96
54592;BME280;40488;48.558;18.150;2023-02-17T00:54:22;100531.38;;;0.16;93.24
54592;BME280;40488;48.558;18.150;2023-02-17T00:56:50;100524.09;;;0.20;92.95
54592;BME280;40488;48.558;18.150;2023-02-17T00:59:21;100523.56;;;0.26;93.01
54592;BME280;40488;48.558;18.150;2023-02-17T01:01:49;100524.03;;;0.35;93.48
54592;BME280;40488;48.558;18.150;2023-02-17T01:04:18;100517.44;;;0.37;93.74
54592;BME280;40488;48.558;18.150;2023-02-17T01:06:47;100518.72;;;0.29;93.67
54592;BME280;40488;48.558;18.150;2023-02-17T01:09:16;100507.84;;;0.14;93.18
54592;BME280;40488;48.558;18.150;2023-02-17T01:11:48;100518.34;;;0.23;93.88
54592;BME280;40488;48.558;18.150;2023-02-17T01:14:17;100502.44;;;0.22;93.62
54592;BME280;40488;48.558;18.150;2023-02-17T01:16:47;100495.00;;;0.24;93.84
54592;BME280;40488;48.558;18.150;2023-02-17T01:19:18;100491.69;;;0.25;93.96
54592;BME280;40488;48.558;18.150;2023-02-17T01:21:47;100488.25;;;0.23;94.06
54592;BME280;40488;48.558;18.150;2023-02-17T01:24:16;100495.31;;;0.30;93.83
54592;BME280;40488;48.558;18.150;2023-02-17T01:26:45;100513.81;;;0.32;94.13
54592;BME280;40488;48.558;18.150;2023-02-17T01:29:14;100501.63;;;0.38;94.15
54592;BME280;40488;48.558;18.150;2023-02-17T01:31:43;100506.16;;;0.45;93.86
54592;BME280;40488;48.558;18.150;2023-02-17T01:34:13;100506.34;;;0.48;94.50
54592;BME280;40488;48.558;18.150;2023-02-17T01:36:43;100504.44;;;0.44;94.34
54592;BME280;40488;48.558;18.150;2023-02-17T01:39:12;100503.03;;;0.49;94.15
54592;BME280;40488;48.558;18.150;2023-02-17T01:41:42;100492.69;;;0.43;94.55
54592;BME280;40488;48.558;18.150;2023-02-17T01:44:16;100487.16;;;0.34;94.27
54592;BME280;40488;48.558;18.150;2023-02-17T01:46:47;100474.94;;;0.24;94.12
54592;BME280;40488;48.558;18.150;2023-02-17T01:49:26;100481.66;;;0.25;94.21
54592;BME280;40488;48.558;18.150;2023-02-17T01:52:01;100494.44;;;0.29;94.82
54592;BME280;40488;48.558;18.150;2023-02-17T01:54:37;100495.16;;;0.27;94.29
54592;BME280;40488;48.558;18.150;2023-02-17T01:57:09;100495.59;;;0.20;94.32
54592;BME280;40488;48.558;18.150;2023-02-17T01:59:40;100480.53;;;0.20;94.59
54592;BME280;40488;48.558;18.150;2023-02-17T02:02:08;100492.50;;;0.24;94.33
54592;BME280;40488;48.558;18.150;2023-02-17T02:04:44;100494.94;;;0.38;94.92
54592;BME280;40488;48.558;18.150;2023-02-17T02:07:17;100487.97;;;0.49;94.85
54592;BME280;40488;48.558;18.150;2023-02-17T02:09:50;100490.81;;;0.55;95.09
54592;BME280;40488;48.558;18.150;2023-02-17T02:12:22;100482.88;;;0.47;94.88
54592;BME280;40488;48.558;18.150;2023-02-17T02:14:52;100477.09;;;0.34;94.81
54592;BME280;40488;48.558;18.150;2023-02-17T02:17:31;100473.34;;;0.26;94.55
54592;BME280;40488;48.558;18.150;2023-02-17T02:20:12;100467.41;;;0.24;94.34
54592;BME280;40488;48.558;18.150;2023-02-17T02:23:11;100473.19;;;0.23;94.62
54592;BME280;40488;48.558;18.150;2023-02-17T02:25:56;100477.97;;;0.34;94.74
54592;BME280;40488;48.558;18.150;2023-02-17T02:28:45;100470.03;;;0.27;94.73
54592;BME280;40488;48.558;18.150;2023-02-17T02:31:32;100474.47;;;0.31;95.02
54592;BME280;40488;48.558;18.150;2023-02-17T02:34:08;100471.38;;;0.36;94.83
54592;BME280;40488;48.558;18.150;2023-02-17T02:36:45;100466.88;;;0.45;94.90
54592;BME280;40488;48.558;18.150;2023-02-17T02:39:19;100473.44;;;0.43;94.35
54592;BME280;40488;48.558;18.150;2023-02-17T02:41:51;100472.97;;;0.34;94.88
54592;BME280;40488;48.558;18.150;2023-02-17T02:44:21;100452.94;;;0.20;94.88
54592;BME280;40488;48.558;18.150;2023-02-17T02:46:57;100468.00;;;0.20;94.55
54592;BME280;40488;48.558;18.150;2023-02-17T02:49:29;100467.84;;;0.17;94.70
54592;BME280;40488;48.558;18.150;2023-02-17T02:52:04;100471.13;;;0.16;95.09
54592;BME280;40488;48.558;18.150;2023-02-17T02:54:43;100476.16;;;0.16;94.29
54592;BME280;40488;48.558;18.150;2023-02-17T02:57:32;100478.97;;;0.22;94.62
54592;BME280;40488;48.558;18.150;2023-02-17T03:00:13;100471.63;;;0.25;94.88
54592;BME280;40488;48.558;18.150;2023-02-17T03:02:50;100468.16;;;0.23;94.37
54592;BME280;40488;48.558;18.150;2023-02-17T03:05:30;100475.06;;;0.27;95.05
54592;BME280;40488;48.558;18.150;2023-02-17T03:08:03;100468.16;;;0.23;94.66
54592;BME280;40488;48.558;18.150;2023-02-17T03:10:44;100459.34;;;0.15;94.24
54592;BME280;40488;48.558;18.150;2023-02-17T03:13:13;100450.28;;;0.17;94.36
54592;BME280;40488;48.558;18.150;2023-02-17T03:15:43;100461.28;;;0.19;94.66
54592;BME280;40488;48.558;18.150;2023-02-17T03:18:12;100466.00;;;0.29;94.88
54592;BME280;40488;48.558;18.150;2023-02-17T03:20:49;100461.22;;;0.33;94.69
54592;BME280;40488;48.558;18.150;2023-02-17T03:23:19;100463.63;;;0.32;95.05
54592;BME280;40488;48.558;18.150;2023-02-17T03:25:48;100458.94;;;0.38;94.51
54592;BME280;40488;48.558;18.150;2023-02-17T03:28:17;100462.69;;;0.46;95.04
54592;BME280;40488;48.558;18.150;2023-02-17T03:30:47;100469.63;;;0.50;94.89
54592;BME280;40488;48.558;18.150;2023-02-17T03:33:16;100465.06;;;0.59;94.97
54592;BME280;40488;48.558;18.150;2023-02-17T03:35:46;100461.44;;;0.54;94.92
54592;BME280;40488;48.558;18.150;2023-02-17T03:38:15;100454.53;;;0.50;94.51
54592;BME280;40488;48.558;18.150;2023-02-17T03:40:44;100457.66;;;0.46;94.81
54592;BME280;40488;48.558;18.150;2023-02-17T03:43:12;100471.03;;;0.45;94.64
54592;BME280;40488;48.558;18.150;2023-02-17T03:45:44;100466.16;;;0.48;94.59
54592;BME280;40488;48.558;18.150;2023-02-17T03:48:12;100456.25;;;0.51;94.87
54592;BME280;40488;48.558;18.150;2023-02-17T03:50:41;100443.63;;;0.49;94.94
54592;BME280;40488;48.558;18.150;2023-02-17T03:53:11;100436.16;;;0.51;94.95
54592;BME280;40488;48.558;18.150;2023-02-17T03:55:40;100443.00;;;0.53;94.66
54592;BME280;40488;48.558;18.150;2023-02-17T03:58:09;100443.38;;;0.61;95.18
54592;BME280;40488;48.558;18.150;2023-02-17T04:00:38;100451.38;;;0.70;94.88
54592;BME280;40488;48.558;18.150;2023-02-17T04:03:07;100460.25;;;0.80;95.56
54592;BME280;40488;48.558;18.150;2023-02-17T04:05:35;100454.50;;;0.82;95.14
54592;BME280;40488;48.558;18.150;2023-02-17T04:08:04;100441.19;;;0.83;95.25
54592;BME280;40488;48.558;18.150;2023-02-17T04:10:34;100433.41;;;0.79;95.27
54592;BME280;40488;48.558;18.150;2023-02-17T04:13:03;100422.81;;;0.68;95.14
54592;BME280;40488;48.558;18.150;2023-02-17T04:15:32;100408.22;;;0.61;94.75
54592;BME280;40488;48.558;18.150;2023-02-17T04:18:01;100421.72;;;0.63;95.00
54592;BME280;40488;48.558;18.150;2023-02-17T04:20:30;100426.91;;;0.66;95.23
54592;BME280;40488;48.558;18.150;2023-02-17T04:22:58;100430.50;;;0.71;94.79
54592;BME280;40488;48.558;18.150;2023-02-17T04:25:27;100441.50;;;0.73;94.83
54592;BME280;40488;48.558;18.150;2023-02-17T04:27:57;100442.75;;;0.81;95.50
54592;BME280;40488;48.558;18.150;2023-02-17T04:30:26;100426.25;;;0.86;95.37
54592;BME280;40488;48.558;18.150;2023-02-17T04:32:55;100424.91;;;0.93;95.08
54592;BME280;40488;48.558;18.150;2023-02-17T04:35:24;100419.94;;;0.94;94.62
54592;BME280;40488;48.558;18.150;2023-02-17T04:37:53;100419.94;;;0.94;95.25
54592;BME280;40488;48.558;18.150;2023-02-17T04:40:22;100413.50;;;0.99;94.97
54592;BME280;40488;48.558;18.150;2023-02-17T04:42:51;100427.69;;;0.99;94.93
54592;BME280;40488;48.558;18.150;2023-02-17T04:45:22;100426.94;;;1.00;95.08
54592;BME280;40488;48.558;18.150;2023-02-17T04:47:51;100435.34;;;1.00;95.27
54592;BME280;40488;48.558;18.150;2023-02-17T04:50:20;100429.13;;;0.94;94.78
54592;BME280;40488;48.558;18.150;2023-02-17T04:52:49;100411.69;;;0.79;94.46
54592;BME280;40488;48.558;18.150;2023-02-17T04:55:18;100417.47;;;0.78;94.42
54592;BME280;40488;48.558;18.150;2023-02-17T04:57:46;100421.25;;;0.86;94.60
54592;BME280;40488;48.558;18.150;2023-02-17T05:00:15;100415.72;;;0.77;94.98
54592;BME280;40488;48.558;18.150;2023-02-17T05:02:46;100416.59;;;0.78;95.11
54592;BME280;40488;48.558;18.150;2023-02-17T05:05:15;100424.53;;;0.85;94.54
54592;BME280;40488;48.558;18.150;2023-02-17T05:07:45;100420.44;;;0.87;94.82
54592;BME280;40488;48.558;18.150;2023-02-17T05:10:15;100423.09;;;0.90;94.88
54592;BME280;40488;48.558;18.150;2023-02-17T05:12:45;100423.09;;;0.90;94.67
54592;BME280;40488;48.558;18.150;2023-02-17T05:15:13;100424.81;;;0.91;95.04
54592;BME280;40488;48.558;18.150;2023-02-17T05:17:42;100418.34;;;0.96;94.93
54592;BME280;40488;48.558;18.150;2023-02-17T05:20:13;100420.97;;;0.98;94.86
54592;BME280;40488;48.558;18.150;2023-02-17T05:22:41;100434.25;;;0.95;94.91
54592;BME280;40488;48.558;18.150;2023-02-17T05:25:10;100443.00;;;1.03;94.99
54592;BME280;40488;48.558;18.150;2023-02-17T05:27:39;100434.63;;;1.03;94.26
54592;BME280;40488;48.558;18.150;2023-02-17T05:30:08;100435.63;;;1.06;94.13
54592;BME280;40488;48.558;18.150;2023-02-17T05:32:37;100439.72;;;1.04;94.15
54592;BME280;40488;48.558;18.150;2023-02-17T05:35:07;100435.34;;;1.00;94.90
54592;BME280;40488;48.558;18.150;2023-02-17T05:37:37;100435.19;;;0.97;94.02
54592;BME280;40488;48.558;18.150;2023-02-17T05:40:06;100428.41;;;0.96;94.47
54592;BME280;40488;48.558;18.150;2023-02-17T05:42:35;100418.69;;;1.02;94.50
54592;BME280;40488;48.558;18.150;2023-02-17T05:45:04;100421.84;;;0.98;94.05
54592;BME280;40488;48.558;18.150;2023-02-17T05:47:33;100421.53;;;0.92;93.96
54592;BME280;40488;48.558;18.150;2023-02-17T05:50:03;100420.44;;;0.87;93.59
54592;BME280;40488;48.558;18.150;2023-02-17T05:52:32;100424.81;;;0.91;93.94
54592;BME280;40488;48.558;18.150;2023-02-17T05:55:02;100431.72;;;0.95;94.35
54592;BME280;40488;48.558;18.150;2023-02-17T05:57:31;100429.72;;;1.06;94.04
54592;BME280;40488;48.558;18.150;2023-02-17T06:00:00;100430.75;;;1.09;94.56
54592;BME280;40488;48.558;18.150;2023-02-17T06:02:38;100441.25;;;1.18;94.61
54592;BME280;40488;48.558;18.150;2023-02-17T06:05:07;100432.94;;;1.19;94.32
54592;BME280;40488;48.558;18.150;2023-02-17T06:07:36;100424.94;;;1.10;93.75
54592;BME280;40488;48.558;18.150;2023-02-17T06:10:08;100430.44;;;1.03;94.03
54592;BME280;40488;48.558;18.150;2023-02-17T06:12:37;100435.56;;;1.05;94.07
54592;BME280;40488;48.558;18.150;2023-02-17T06:15:06;100422.44;;;1.10;93.53
54592;BME280;40488;48.558;18.150;2023-02-17T06:17:36;100426.44;;;1.07;93.73
54592;BME280;40488;48.558;18.150;2023-02-17T06:20:07;100425.13;;;0.97;93.93
54592;BME280;40488;48.558;18.150;2023-02-17T06:22:37;100432.94;;;1.03;93.85
54592;BME280;40488;48.558;18.150;2023-02-17T06:25:08;100422.56;;;1.13;93.42
54592;BME280;40488;48.558;18.150;2023-02-17T06:27:37;100426.97;;;1.17;93.62
54592;BME280;40488;48.558;18.150;2023-02-17T06:30:07;100423.75;;;1.20;93.49
54592;BME280;40488;48.558;18.150;2023-02-17T06:32:36;100424.88;;;1.26;94.15
54592;BME280;40488;48.558;18.150;2023-02-17T06:35:05;100421.56;;;1.27;93.43
54592;BME280;40488;48.558;18.150;2023-02-17T06:37:34;100426.59;;;1.27;93.69
54592;BME280;40488;48.558;18.150;2023-02-17T06:40:04;100421.78;;;1.32;93.82
54592;BME280;40488;48.558;18.150;2023-02-17T06:42:34;100416.84;;;1.33;94.19
54592;BME280;40488;48.558;18.150;2023-02-17T06:45:03;100419.53;;;1.37;93.61
54592;BME280;40488;48.558;18.150;2023-02-17T06:47:33;100402.69;;;1.35;93.43
54592;BME280;40488;48.558;18.150;2023-02-17T06:50:04;100405.97;;;1.34;93.49
54592;BME280;40488;48.558;18.150;2023-02-17T06:52:33;100398.44;;;1.34;93.38
54592;BME280;40488;48.558;18.150;2023-02-17T06:55:02;100402.91;;;1.40;93.88
54592;BME280;40488;48.558;18.150;2023-02-17T06:57:31;100408.97;;;1.44;93.26
54592;BME280;40488;48.558;18.150;2023-02-17T07:00:01;100407.59;;;1.50;93.67
54592;BME280;40488;48.558;18.150;2023-02-17T07:02:30;100416.19;;;1.55;93.82
54592;BME280;40488;48.558;18.150;2023-02-17T07:04:59;100419.59;;;1.56;93.15
54592;BME280;40488;48.558;18.150;2023-02-17T07:07:28;100424.47;;;1.53;93.34
54592;BME280;40488;48.558;18.150;2023-02-17T07:09:57;100427.75;;;1.52;93.28
54592;BME280;40488;48.558;18.150;2023-02-17T07:12:26;100415.28;;;1.53;93.38
54592;BME280;40488;48.558;18.150;2023-02-17T07:14:55;100416.13;;;1.54;93.50
54592;BME280;40488;48.558;18.150;2023-02-17T07:17:25;100432.94;;;1.55;93.49
54592;BME280;40488;48.558;18.150;2023-02-17T07:19:54;100433.16;;;1.42;92.77
54592;BME280;40488;48.558;18.150;2023-02-17T07:22:23;100427.63;;;1.31;92.99
54592;BME280;40488;48.558;18.150;2023-02-17T07:24:52;100431.78;;;1.30;93.19
54592;BME280;40488;48.558;18.150;2023-02-17T07:27:21;100431.56;;;1.26;92.62
54592;BME280;40488;48.558;18.150;2023-02-17T07:29:50;100428.91;;;1.23;93.00
54592;BME280;40488;48.558;18.150;2023-02-17T07:32:19;100425.66;;;1.25;93.08
54592;BME280;40488;48.558;18.150;2023-02-17T07:34:49;100423.31;;;1.28;92.64
54592;BME280;40488;48.558;18.150;2023-02-17T07:37:18;100423.00;;;1.22;92.52
54592;BME280;40488;48.558;18.150;2023-02-17T07:39:48;100429.59;;;1.20;92.41
54592;BME280;40488;48.558;18.150;2023-02-17T07:42:18;100427.09;;;1.20;93.09
54592;BME280;40488;48.558;18.150;2023-02-17T07:44:47;100421.84;;;1.16;92.63
54592;BME280;40488;48.558;18.150;2023-02-17T07:47:16;100422.66;;;1.15;93.01
54592;BME280;40488;48.558;18.150;2023-02-17T07:49:45;100428.84;;;1.21;93.24
54592;BME280;40488;48.558;18.150;2023-02-17T07:52:17;100427.25;;;1.23;92.65
54592;BME280;40488;48.558;18.150;2023-02-17T07:54:46;100431.50;;;1.24;92.91
54592;BME280;40488;48.558;18.150;2023-02-17T07:57:14;100420.97;;;1.15;92.57
54592;BME280;40488;48.558;18.150;2023-02-17T07:59:45;100424.59;;;1.20;92.40
54592;BME280;40488;48.558;18.150;2023-02-17T08:02:14;100420.13;;;1.32;93.12
54592;BME280;40488;48.558;18.150;2023-02-17T08:04:43;100417.41;;;1.28;93.00
54592;BME280;40488;48.558;18.150;2023-02-17T08:07:12;100429.91;;;1.26;93.00
54592;BME280;40488;48.558;18.150;2023-02-17T08:09:43;100425.50;;;1.22;93.37
54592;BME280;40488;48.558;18.150;2023-02-17T08:12:21;100435.44;;;1.19;92.92
54592;BME280;40488;48.558;18.150;2023-02-17T08:15:00;100438.72;;;1.18;92.71
54592;BME280;40488;48.558;18.150;2023-02-17T08:17:29;100441.56;;;1.24;93.53
54592;BME280;40488;48.558;18.150;2023-02-17T08:19:59;100438.31;;;1.27;92.79
54592;BME280;40488;48.558;18.150;2023-02-17T08:22:35;100437.25;;;1.22;92.80
54592;BME280;40488;48.558;18.150;2023-02-17T08:25:05;100433.38;;;1.28;92.59
54592;BME280;40488;48.558;18.150;2023-02-17T08:27:34;100430.84;;;1.28;93.45
54592;BME280;40488;48.558;18.150;2023-02-17T08:30:03;100431.94;;;1.33;93.15
54592;BME280;40488;48.558;18.150;2023-02-17T08:32:33;100427.41;;;1.44;93.42
54592;BME280;40488;48.558;18.150;2023-02-17T08:35:02;100426.69;;;1.47;92.54
54592;BME280;40488;48.558;18.150;2023-02-17T08:37:32;100418.56;;;1.52;93.19
54592;BME280;40488;48.558;18.150;2023-02-17T08:40:01;100411.53;;;1.63;92.54
54592;BME280;40488;48.558;18.150;2023-02-17T08:42:32;100410.50;;;1.77;92.75
54592;BME280;40488;48.558;18.150;2023-02-17T08:45:01;100404.69;;;1.97;93.54
54592;BME280;40488;48.558;18.150;2023-02-17T08:47:30;100411.25;;;2.11;92.85
54592;BME280;40488;48.558;18.150;2023-02-17T08:49:59;100413.53;;;2.26;93.44
54592;BME280;40488;48.558;18.150;2023-02-17T08:52:28;100419.59;;;2.48;93.49
54592;BME280;40488;48.558;18.150;2023-02-17T08:54:57;100423.59;;;2.64;93.25
54592;BME280;40488;48.558;18.150;2023-02-17T08:57:26;100409.63;;;2.70;92.96
54592;BME280;40488;48.558;18.150;2023-02-17T08:59:56;100391.59;;;2.81;92.31
54592;BME280;40488;48.558;18.150;2023-02-17T09:02:25;100387.03;;;2.93;92.51
54592;BME280;40488;48.558;18.150;2023-02-17T09:04:54;100372.16;;;2.99;92.65
54592;BME280;40488;48.558;18.150;2023-02-17T09:07:23;100373.41;;;2.88;91.62
54592;BME280;40488;48.558;18.150;2023-02-17T09:09:51;100352.59;;;2.72;92.13
54592;BME280;40488;48.558;18.150;2023-02-17T09:12:20;100382.25;;;2.99;91.25
54592;BME280;40488;48.558;18.150;2023-02-17T09:14:49;100379.44;;;3.12;91.15
54592;BME280;40488;48.558;18.150;2023-02-17T09:17:19;100380.41;;;3.15;90.63
54592;BME280;40488;48.558;18.150;2023-02-17T09:19:48;100384.66;;;3.16;91.26
54592;BME280;40488;48.558;18.150;2023-02-17T09:22:17;100369.69;;;3.21;90.48
54592;BME280;40488;48.558;18.150;2023-02-17T09:24:58;100367.03;;;3.18;90.86
54592;BME280;40488;48.558;18.150;2023-02-17T09:27:27;100378.03;;;3.20;90.27
54592;BME280;40488;48.558;18.150;2023-02-17T09:29:56;100373.88;;;3.20;90.43
54592;BME280;40488;48.558;18.150;2023-02-17T09:32:26;100375.41;;;3.17;90.13
54592;BME280;40488;48.558;18.150;2023-02-17T09:34:56;100374.59;;;3.18;89.81
54592;BME280;40488;48.558;18.150;2023-02-17T09:37:27;100367.72;;;3.14;89.08
54592;BME280;40488;48.558;18.150;2023-02-17T09:39:56;100373.00;;;3.20;89.42
54592;BME280;40488;48.558;18.150;2023-02-17T09:42:27;100372.41;;;3.25;88.54
54592;BME280;40488;48.558;18.150;2023-02-17T09:44:59;100373.84;;;3.41;89.07
54592;BME280;40488;48.558;18.150;2023-02-17T09:47:35;100369.78;;;3.45;89.07
54592;BME280;40488;48.558;18.150;2023-02-17T09:50:07;100372.81;;;3.58;88.39
54592;BME280;40488;48.558;18.150;2023-02-17T09:52:41;100373.44;;;3.75;88.85
54592;BME280;40488;48.558;18.150;2023-02-17T09:55:17;100370.63;;;3.89;88.49
54592;BME280;40488;48.558;18.150;2023-02-17T09:57:52;100368.22;;;3.92;87.70
54592;BME280;40488;48.558;18.150;2023-02-17T10:00:24;100374.72;;;3.86;87.21
54592;BME280;40488;48.558;18.150;2023-02-17T10:03:01;100365.13;;;3.77;87.62
54592;BME280;40488;48.558;18.150;2023-02-17T10:05:37;100368.69;;;3.82;87.32
54592;BME280;40488;48.558;18.150;2023-02-17T10:08:13;100365.91;;;3.98;87.30
54592;BME280;40488;48.558;18.150;2023-02-17T10:10:46;100366.16;;;4.04;86.84
54592;BME280;40488;48.558;18.150;2023-02-17T10:13:21;100356.59;;;4.20;86.49
54592;BME280;40488;48.558;18.150;2023-02-17T10:15:52;100364.34;;;4.24;86.28
54592;BME280;40488;48.558;18.150;2023-02-17T10:18:29;100356.69;;;4.23;86.45
54592;BME280;40488;48.558;18.150;2023-02-17T10:21:07;100353.53;;;4.28;86.28
54592;BME280;40488;48.558;18.150;2023-02-17T10:23:39;100349.19;;;4.24;86.06
54592;BME280;40488;48.558;18.150;2023-02-17T10:26:18;100358.31;;;4.21;85.69
54592;BME280;40488;48.558;18.150;2023-02-17T10:28:51;100364.22;;;4.21;85.52
54592;BME280;40488;48.558;18.150;2023-02-17T10:31:33;100365.97;;;4.22;85.35
54592;BME280;40488;48.558;18.150;2023-02-17T10:34:17;100382.94;;;4.26;85.19
54592;BME280;40488;48.558;18.150;2023-02-17T10:36:55;100382.19;;;4.29;85.10
54592;BME280;40488;48.558;18.150;2023-02-17T10:39:43;100382.34;;;4.33;85.54
54592;BME280;40488;48.558;18.150;2023-02-17T10:42:20;100374.13;;;4.39;84.99
54592;BME280;40488;48.558;18.150;2023-02-17T10:44:50;100366.03;;;4.49;85.14
54592;BME280;40488;48.558;18.150;2023-02-17T10:47:21;100365.84;;;4.43;85.47
54592;BME280;40488;48.558;18.150;2023-02-17T10:49:53;100361.53;;;4.40;85.75
54592;BME280;40488;48.558;18.150;2023-02-17T10:52:26;100359.28;;;4.24;85.54
54592;BME280;40488;48.558;18.150;2023-02-17T10:55:02;100355.66;;;4.18;85.43
54592;BME280;40488;48.558;18.150;2023-02-17T10:57:51;100349.63;;;4.13;85.89
54592;BME280;40488;48.558;18.150;2023-02-17T11:00:22;100337.78;;;4.12;85.68
54592;BME280;40488;48.558;18.150;2023-02-17T11:02:50;100332.84;;;4.15;85.65
54592;BME280;40488;48.558;18.150;2023-02-17T11:05:24;100339.84;;;4.22;85.89
54592;BME280;40488;48.558;18.150;2023-02-17T11:07:59;100342.41;;;4.23;86.57
54592;BME280;40488;48.558;18.150;2023-02-17T11:10:32;100317.09;;;4.22;86.33
54592;BME280;40488;48.558;18.150;2023-02-17T11:13:02;100318.81;;;4.23;87.12
54592;BME280;40488;48.558;18.150;2023-02-17T11:15:36;100322.94;;;4.21;86.62
54592;BME280;40488;48.558;18.150;2023-02-17T11:18:18;100306.28;;;4.26;87.12
54592;BME280;40488;48.558;18.150;2023-02-17T11:20:59;100302.41;;;4.35;87.92
54592;BME280;40488;48.558;18.150;2023-02-17T11:23:28;100300.03;;;4.40;87.79
54592;BME280;40488;48.558;18.150;2023-02-17T11:26:00;100296.47;;;4.35;87.81
54592;BME280;40488;48.558;18.150;2023-02-17T11:28:29;100287.19;;;4.34;87.96
54592;BME280;40488;48.558;18.150;2023-02-17T11:30:59;100281.03;;;4.26;87.57
54592;BME280;40488;48.558;18.150;2023-02-17T11:33:32;100286.91;;;4.25;88.24
54592;BME280;40488;48.558;18.150;2023-02-17T11:36:04;100284.25;;;4.22;87.80
54592;BME280;40488;48.558;18.150;2023-02-17T11:38:42;100274.03;;;4.19;87.68
54592;BME280;40488;48.558;18.150;2023-02-17T11:41:11;100274.16;;;4.22;88.43
54592;BME280;40488;48.558;18.150;2023-02-17T11:43:51;100265.75;;;4.23;88.02
54592;BME280;40488;48.558;18.150;2023-02-17T11:46:24;100263.03;;;4.17;88.35
54592;BME280;40488;48.558;18.150;2023-02-17T11:49:03;100257.16;;;4.18;88.09
54592;BME280;40488;48.558;18.150;2023-02-17T11:51:45;100252.69;;;4.11;88.29
54592;BME280;40488;48.558;18.150;2023-02-17T11:54:23;100253.53;;;4.10;88.53
54592;BME280;40488;48.558;18.150;2023-02-17T11:57:02;100250.09;;;4.07;88.72
54592;BME280;40488;48.558;18.150;2023-02-17T11:59:51;100244.34;;;4.12;89.20
54592;BME280;40488;48.558;18.150;2023-02-17T12:02:36;100244.59;;;4.19;89.65
54592;BME280;40488;48.558;18.150;2023-02-17T12:05:22;100245.38;;;4.18;89.34
54592;BME280;40488;48.558;18.150;2023-02-17T12:08:05;100242.00;;;4.18;89.51
54592;BME280;40488;48.558;18.150;2023-02-17T12:10:46;100242.22;;;4.24;89.88
54592;BME280;40488;48.558;18.150;2023-02-17T12:13:31;100232.22;;;4.27;89.99
54592;BME280;40488;48.558;18.150;2023-02-17T12:16:13;100233.06;;;4.27;89.96
54592;BME280;40488;48.558;18.150;2023-02-17T12:19:00;100220.28;;;4.23;90.07
54592;BME280;40488;48.558;18.150;2023-02-17T12:21:43;100213.53;;;4.22;90.07
54592;BME280;40488;48.558;18.150;2023-02-17T12:24:33;100216.91;;;4.22;90.67
54592;BME280;40488;48.558;18.150;2023-02-17T12:27:20;100214.47;;;4.25;90.89
54592;BME280;40488;48.558;18.150;2023-02-17T12:30:05;100214.53;;;4.27;90.86
54592;BME280;40488;48.558;18.150;2023-02-17T12:32:52;100209.53;;;4.28;91.15
54592;BME280;40488;48.558;18.150;2023-02-17T12:35:26;100213.88;;;4.32;90.98
54592;BME280;40488;48.558;18.150;2023-02-17T12:38:02;100208.13;;;4.36;91.33
54592;BME280;40488;48.558;18.150;2023-02-17T12:40:36;100207.53;;;4.45;91.60
54592;BME280;40488;48.558;18.150;2023-02-17T12:43:17;100205.31;;;4.54;91.32
54592;BME280;40488;48.558;18.150;2023-02-17T12:45:51;100194.53;;;4.59;91.40
54592;BME280;40488;48.558;18.150;2023-02-17T12:48:25;100190.63;;;4.69;91.26
54592;BME280;40488;48.558;18.150;2023-02-17T12:51:02;100188.50;;;4.83;91.67
54592;BME280;40488;48.558;18.150;2023-02-17T12:53:41;100187.72;;;4.85;91.51
54592;BME280;40488;48.558;18.150;2023-02-17T12:56:32;100202.97;;;4.87;91.85
54592;BME280;40488;48.558;18.150;2023-02-17T12:59:13;100197.06;;;4.86;91.27
54592;BME280;40488;48.558;18.150;2023-02-17T13:01:49;100200.56;;;4.91;91.36
54592;BME280;40488;48.558;18.150;2023-02-17T13:04:20;100198.06;;;4.91;91.19
54592;BME280;40488;48.558;18.150;2023-02-17T13:06:58;100192.16;;;4.92;91.64
54592;BME280;40488;48.558;18.150;2023-02-17T13:09:34;100192.16;;;4.92;91.08
54592;BME280;40488;48.558;18.150;2023-02-17T13:15:06;100187.09;;;4.92;91.40
54592;BME280;40488;48.558;18.150;2023-02-17T13:17:55;100183.88;;;4.96;90.89
54592;BME280;40488;48.558;18.150;2023-02-17T13:20:41;100174.75;;;5.01;90.89